메인 페이지
METAR-TAF:

METAR-TAF

공항 :

티후아나 국제공항

티후아나, 멕시코

위도: 32-33N, 경도: 116-58W, 고도: 152m

현재 날씨관측

예보는 42분 전, 18:40시(UTC)에 발표되었습니다.
10kt
온도 22°C
습도 57%
기압 1013 hPa
시정: 12.9km
맑음

METAR: MMTJ 191840Z 26010KT 8SM SKC 22/13 A2990 RMK HZY ST W

시각: 12:22 (19:22 UTC)

예보

예보는 1 시간 43분 전, 17:39시(UTC)에 발표되었습니다.
예보 대상 시간: 19일 18시부터 20일 18시까지 (UTC)
10kt
시정: 9.7km
맑음
연무
19일 2100시부터 (UTC)
서남서15kt
시정: 10km
맑음
20일 0300시부터 (UTC)
남남동5kt
시정: 10km
고도 2000ft 상공 구름 보통
20일 1500시부터 (UTC)
북서5kt
시정: 10km
맑음

TAF: MMTJ 191739Z 1918/2018 28010KT 6SM HZ SKC TX22/1921Z TN13/2012Z FM192100 25015KT P6SM SKC FM200300 15005KT P6SM SCT020 FM201500 32005KT P6SM SKC

4,000개 이상의 공항 관측 자료 및 예보 (METAR 및 TAF 보고).

지도상에서 검색 가능한 기상관측소가 노란 점과 빨간 점으로 표시되어 있습니다.

기상관측소 명을 보려면 표시 위로 마우스를 이동하세요.

날씨 관측과 예보를 보려면 클릭하세요.

지도 변경 : 확대하려면 엑스 표시가 있는 녹색 버튼, 축소하려면 빼기 표시가 있는 녹색 버튼, 다음 페이지의 지도를 보려면 녹색 화살표를 클릭하세요.


METAR-TAF: